Airfield :
LOGIN :

Register | Disclaimer

   EN    FR    IT 

 










Legend :    VFR   Marginal VFR   IFR   Intensive IFR   Very Intensive IFR
Visi :
Ceiling :
>= 8 km
>= 3000ft
5 to 8 km
1000 to 3000 ft
1500m to 5 km
500 to 1000 ft
800 to 1500m
200 to 500 ft
< 800m
< 200 ft
Symbols :   Thunderstorms  Fog  Heavy snow  Heavy precipitations  Wind > 20 kt
SIGMETs :     Misc.  Thunderstorms  Icing  Turbulence  Mountain Waves  Volcanic Ashes






- Airport Elevation : 238 ft
- IATA code : FAB


EGLF - Farnborough

CURRENT METAR :
  • 031720Z AUTO 22020KT 9999 NCD 17/10 Q1015

EXPIRED METARs :
  • 031650Z AUTO 23019KT 9999 FEW030/// 18/10 Q1015
  • 031620Z AUTO 23021KT 9999 NCD 19/10 Q1015
  • 031550Z AUTO 23021KT 9999 SCT034/// 19/10 Q1015
  • 031520Z AUTO 23018G28KT 9999 FEW036/// 19/10 Q1015
  • 031450Z AUTO 21018KT 180V240 9999 NCD 19/10 Q1015

TAF TAF EGLF
Valid from the 03 at 15:00 until the 03 at 23:00 UTC


031356Z 0315/0323 23016G26KT 9999 SCT035
PROB30
TEMPO 0316/0323 7000 RA
BECMG 0319/0322 BKN012
ATIS : +44 09063 800 400 (*282)



MET'MAP, your aeronautical weather chart ! - Copyright ORBIFLY December 2007 - Disclaimer

ORBIFLY MET'MAP TEAM :

Programming & Development : Alexandra Zaïnal
Concept & original design : Baudouin d'Aumeries
Assistance for programming : Marc-Olivier Méhu
Technical & hardware support : Manuel Goepfert

Contact : metmap@orbifly.com




SOURCES & CREDITS :

   NOAA